sensor_id;sensor_type;location;lat;lon;timestamp;P1;durP1;ratioP1;P2;durP2;ratioP2
40745;SDS011;26454;51.164;4.488;2023-05-10T00:00:16;27.15;;;17.58;;
40745;SDS011;26454;51.164;4.488;2023-05-10T00:02:42;26.40;;;18.00;;
40745;SDS011;26454;51.164;4.488;2023-05-10T00:05:08;28.63;;;15.68;;
40745;SDS011;26454;51.164;4.488;2023-05-10T00:07:34;27.92;;;16.25;;
40745;SDS011;26454;51.164;4.488;2023-05-10T00:10:00;19.83;;;15.48;;
40745;SDS011;26454;51.164;4.488;2023-05-10T00:12:26;29.77;;;16.52;;
40745;SDS011;26454;51.164;4.488;2023-05-10T00:14:52;24.48;;;16.10;;
40745;SDS011;26454;51.164;4.488;2023-05-10T00:17:18;25.10;;;16.63;;
40745;SDS011;26454;51.164;4.488;2023-05-10T00:19:45;25.40;;;16.85;;
40745;SDS011;26454;51.164;4.488;2023-05-10T00:22:11;27.95;;;16.98;;
40745;SDS011;26454;51.164;4.488;2023-05-10T00:24:37;29.75;;;16.98;;
40745;SDS011;26454;51.164;4.488;2023-05-10T00:27:02;28.13;;;17.30;;
40745;SDS011;26454;51.164;4.488;2023-05-10T00:29:29;27.10;;;18.23;;
40745;SDS011;26454;51.164;4.488;2023-05-10T00:31:55;30.60;;;18.40;;
40745;SDS011;26454;51.164;4.488;2023-05-10T00:34:21;32.33;;;18.05;;
40745;SDS011;26454;51.164;4.488;2023-05-10T00:36:47;28.88;;;17.48;;
40745;SDS011;26454;51.164;4.488;2023-05-10T00:39:14;33.05;;;18.52;;
40745;SDS011;26454;51.164;4.488;2023-05-10T00:41:40;30.20;;;18.58;;
40745;SDS011;26454;51.164;4.488;2023-05-10T00:44:06;30.42;;;17.42;;
40745;SDS011;26454;51.164;4.488;2023-05-10T00:46:32;30.23;;;16.75;;
40745;SDS011;26454;51.164;4.488;2023-05-10T00:48:59;30.17;;;19.33;;
40745;SDS011;26454;51.164;4.488;2023-05-10T00:51:26;30.50;;;19.70;;
40745;SDS011;26454;51.164;4.488;2023-05-10T00:53:52;29.80;;;18.88;;
40745;SDS011;26454;51.164;4.488;2023-05-10T00:56:18;31.08;;;18.25;;
40745;SDS011;26454;51.164;4.488;2023-05-10T00:58:47;27.27;;;18.83;;
40745;SDS011;26454;51.164;4.488;2023-05-10T01:01:13;33.00;;;18.63;;
40745;SDS011;26454;51.164;4.488;2023-05-10T01:03:39;30.80;;;18.40;;
40745;SDS011;26454;51.164;4.488;2023-05-10T01:06:06;32.75;;;19.85;;
40745;SDS011;26454;51.164;4.488;2023-05-10T01:08:33;39.38;;;21.45;;
40745;SDS011;26454;51.164;4.488;2023-05-10T01:10:59;33.80;;;19.48;;
40745;SDS011;26454;51.164;4.488;2023-05-10T01:13:30;34.53;;;20.15;;
40745;SDS011;26454;51.164;4.488;2023-05-10T01:15:58;38.00;;;22.13;;
40745;SDS011;26454;51.164;4.488;2023-05-10T01:18:26;37.58;;;20.00;;
40745;SDS011;26454;51.164;4.488;2023-05-10T01:20:57;36.63;;;21.50;;
40745;SDS011;26454;51.164;4.488;2023-05-10T01:26:07;43.83;;;22.73;;
40745;SDS011;26454;51.164;4.488;2023-05-10T01:29:13;35.05;;;21.38;;
40745;SDS011;26454;51.164;4.488;2023-05-10T01:33:59;45.03;;;24.08;;
40745;SDS011;26454;51.164;4.488;2023-05-10T01:36:30;39.00;;;24.38;;
40745;SDS011;26454;51.164;4.488;2023-05-10T01:38:59;37.22;;;23.45;;
40745;SDS011;26454;51.164;4.488;2023-05-10T01:41:30;42.67;;;24.05;;
40745;SDS011;26454;51.164;4.488;2023-05-10T01:44:01;36.63;;;23.10;;
40745;SDS011;26454;51.164;4.488;2023-05-10T01:46:31;36.22;;;22.92;;
40745;SDS011;26454;51.164;4.488;2023-05-10T01:49:00;33.35;;;23.02;;
40745;SDS011;26454;51.164;4.488;2023-05-10T01:51:30;41.67;;;23.90;;
40745;SDS011;26454;51.164;4.488;2023-05-10T01:53:58;37.13;;;22.20;;
40745;SDS011;26454;51.164;4.488;2023-05-10T01:56:26;40.42;;;23.88;;
40745;SDS011;26454;51.164;4.488;2023-05-10T01:58:52;34.75;;;21.95;;
40745;SDS011;26454;51.164;4.488;2023-05-10T02:01:20;32.08;;;21.60;;
40745;SDS011;26454;51.164;4.488;2023-05-10T02:03:47;34.40;;;22.35;;
40745;SDS011;26454;51.164;4.488;2023-05-10T02:06:15;36.85;;;22.67;;
40745;SDS011;26454;51.164;4.488;2023-05-10T02:08:42;39.22;;;21.77;;
40745;SDS011;26454;51.164;4.488;2023-05-10T02:11:08;34.78;;;21.83;;
40745;SDS011;26454;51.164;4.488;2023-05-10T02:13:36;36.47;;;23.52;;
40745;SDS011;26454;51.164;4.488;2023-05-10T02:16:04;37.85;;;22.85;;
40745;SDS011;26454;51.164;4.488;2023-05-10T02:18:31;36.30;;;21.48;;
40745;SDS011;26454;51.164;4.488;2023-05-10T02:20:58;36.17;;;21.65;;
40745;SDS011;26454;51.164;4.488;2023-05-10T02:23:25;35.78;;;21.95;;
40745;SDS011;26454;51.164;4.488;2023-05-10T02:25:51;31.40;;;21.30;;
40745;SDS011;26454;51.164;4.488;2023-05-10T02:28:18;36.70;;;24.05;;
40745;SDS011;26454;51.164;4.488;2023-05-10T02:30:45;37.25;;;22.67;;
40745;SDS011;26454;51.164;4.488;2023-05-10T02:33:16;38.83;;;23.38;;
40745;SDS011;26454;51.164;4.488;2023-05-10T02:35:43;41.55;;;25.33;;
40745;SDS011;26454;51.164;4.488;2023-05-10T02:38:09;40.90;;;24.15;;
40745;SDS011;26454;51.164;4.488;2023-05-10T02:40:36;39.22;;;25.40;;
40745;SDS011;26454;51.164;4.488;2023-05-10T02:43:03;47.40;;;26.25;;
40745;SDS011;26454;51.164;4.488;2023-05-10T02:45:31;36.50;;;23.10;;
40745;SDS011;26454;51.164;4.488;2023-05-10T02:47:58;39.40;;;25.95;;
40745;SDS011;26454;51.164;4.488;2023-05-10T02:50:27;38.85;;;25.30;;
40745;SDS011;26454;51.164;4.488;2023-05-10T02:52:54;41.30;;;25.15;;
40745;SDS011;26454;51.164;4.488;2023-05-10T02:55:25;46.17;;;29.52;;
40745;SDS011;26454;51.164;4.488;2023-05-10T02:57:52;45.95;;;26.88;;
40745;SDS011;26454;51.164;4.488;2023-05-10T03:02:47;45.60;;;29.35;;
40745;SDS011;26454;51.164;4.488;2023-05-10T03:05:13;41.65;;;27.65;;
40745;SDS011;26454;51.164;4.488;2023-05-10T03:07:39;51.42;;;31.75;;
40745;SDS011;26454;51.164;4.488;2023-05-10T03:10:06;64.70;;;36.80;;
40745;SDS011;26454;51.164;4.488;2023-05-10T03:17:49;70.45;;;41.30;;
40745;SDS011;26454;51.164;4.488;2023-05-10T03:20:22;77.03;;;43.42;;
40745;SDS011;26454;51.164;4.488;2023-05-10T03:22:55;129.63;;;63.70;;
40745;SDS011;26454;51.164;4.488;2023-05-10T03:25:21;149.98;;;76.10;;
40745;SDS011;26454;51.164;4.488;2023-05-10T03:27:49;166.48;;;79.80;;
40745;SDS011;26454;51.164;4.488;2023-05-10T03:30:16;169.85;;;80.68;;
40745;SDS011;26454;51.164;4.488;2023-05-10T03:32:42;154.55;;;76.65;;
40745;SDS011;26454;51.164;4.488;2023-05-10T03:35:08;170.45;;;81.78;;
40745;SDS011;26454;51.164;4.488;2023-05-10T03:37:35;125.28;;;64.47;;
40745;SDS011;26454;51.164;4.488;2023-05-10T03:40:01;114.57;;;57.97;;
40745;SDS011;26454;51.164;4.488;2023-05-10T03:42:27;118.55;;;61.50;;
40745;SDS011;26454;51.164;4.488;2023-05-10T03:44:53;111.60;;;56.65;;
40745;SDS011;26454;51.164;4.488;2023-05-10T03:47:19;96.10;;;51.55;;
40745;SDS011;26454;51.164;4.488;2023-05-10T03:49:45;90.90;;;47.53;;
40745;SDS011;26454;51.164;4.488;2023-05-10T03:52:11;82.72;;;47.20;;
40745;SDS011;26454;51.164;4.488;2023-05-10T03:54:37;83.93;;;46.70;;
40745;SDS011;26454;51.164;4.488;2023-05-10T03:57:03;96.05;;;45.42;;
40745;SDS011;26454;51.164;4.488;2023-05-10T03:59:29;84.38;;;44.90;;
40745;SDS011;26454;51.164;4.488;2023-05-10T04:01:56;78.00;;;43.70;;
40745;SDS011;26454;51.164;4.488;2023-05-10T04:04:22;78.20;;;41.03;;
40745;SDS011;26454;51.164;4.488;2023-05-10T04:06:48;80.10;;;43.60;;
40745;SDS011;26454;51.164;4.488;2023-05-10T04:09:14;76.57;;;40.22;;
40745;SDS011;26454;51.164;4.488;2023-05-10T04:11:41;71.35;;;38.65;;
40745;SDS011;26454;51.164;4.488;2023-05-10T04:14:08;67.70;;;36.75;;
40745;SDS011;26454;51.164;4.488;2023-05-10T04:16:34;58.60;;;32.97;;
40745;SDS011;26454;51.164;4.488;2023-05-10T04:19:01;60.67;;;33.17;;
40745;SDS011;26454;51.164;4.488;2023-05-10T04:21:27;61.90;;;34.03;;
40745;SDS011;26454;51.164;4.488;2023-05-10T04:23:53;62.28;;;35.13;;
40745;SDS011;26454;51.164;4.488;2023-05-10T04:26:19;61.72;;;33.53;;
40745;SDS011;26454;51.164;4.488;2023-05-10T04:28:46;58.65;;;31.45;;
40745;SDS011;26454;51.164;4.488;2023-05-10T04:31:12;58.28;;;30.95;;
40745;SDS011;26454;51.164;4.488;2023-05-10T04:33:39;59.03;;;33.42;;
40745;SDS011;26454;51.164;4.488;2023-05-10T04:36:05;60.78;;;32.17;;
40745;SDS011;26454;51.164;4.488;2023-05-10T04:38:32;55.15;;;31.42;;
40745;SDS011;26454;51.164;4.488;2023-05-10T04:41:06;72.97;;;37.15;;
40745;SDS011;26454;51.164;4.488;2023-05-10T04:43:32;57.53;;;32.60;;
40745;SDS011;26454;51.164;4.488;2023-05-10T04:45:58;63.00;;;35.70;;
40745;SDS011;26454;51.164;4.488;2023-05-10T04:48:25;70.38;;;34.95;;
40745;SDS011;26454;51.164;4.488;2023-05-10T04:50:51;56.58;;;30.52;;
40745;SDS011;26454;51.164;4.488;2023-05-10T04:53:17;70.55;;;36.30;;
40745;SDS011;26454;51.164;4.488;2023-05-10T04:55:43;69.53;;;35.17;;
40745;SDS011;26454;51.164;4.488;2023-05-10T04:58:09;63.85;;;35.17;;
40745;SDS011;26454;51.164;4.488;2023-05-10T05:00:35;71.93;;;38.00;;
40745;SDS011;26454;51.164;4.488;2023-05-10T05:03:01;59.13;;;34.38;;
40745;SDS011;26454;51.164;4.488;2023-05-10T05:05:27;61.97;;;35.65;;
40745;SDS011;26454;51.164;4.488;2023-05-10T05:07:53;76.72;;;38.72;;
40745;SDS011;26454;51.164;4.488;2023-05-10T05:10:19;64.57;;;35.60;;
40745;SDS011;26454;51.164;4.488;2023-05-10T05:12:45;67.50;;;36.33;;
40745;SDS011;26454;51.164;4.488;2023-05-10T05:15:11;64.93;;;38.53;;
40745;SDS011;26454;51.164;4.488;2023-05-10T05:17:37;59.25;;;36.40;;
40745;SDS011;26454;51.164;4.488;2023-05-10T05:20:03;58.60;;;35.90;;
40745;SDS011;26454;51.164;4.488;2023-05-10T05:22:29;65.28;;;37.78;;
40745;SDS011;26454;51.164;4.488;2023-05-10T05:24:55;62.60;;;37.13;;
40745;SDS011;26454;51.164;4.488;2023-05-10T05:27:23;61.17;;;36.25;;
40745;SDS011;26454;51.164;4.488;2023-05-10T05:29:52;70.28;;;39.70;;
40745;SDS011;26454;51.164;4.488;2023-05-10T05:32:18;65.53;;;38.03;;
40745;SDS011;26454;51.164;4.488;2023-05-10T05:34:44;65.22;;;36.65;;
40745;SDS011;26454;51.164;4.488;2023-05-10T05:37:14;60.80;;;35.33;;
40745;SDS011;26454;51.164;4.488;2023-05-10T05:39:41;55.45;;;34.33;;
40745;SDS011;26454;51.164;4.488;2023-05-10T05:42:07;55.65;;;33.70;;
40745;SDS011;26454;51.164;4.488;2023-05-10T05:44:33;51.30;;;32.35;;
40745;SDS011;26454;51.164;4.488;2023-05-10T05:46:59;55.47;;;33.53;;
40745;SDS011;26454;51.164;4.488;2023-05-10T05:49:26;48.53;;;31.40;;
40745;SDS011;26454;51.164;4.488;2023-05-10T05:51:52;54.80;;;33.35;;
40745;SDS011;26454;51.164;4.488;2023-05-10T05:54:18;50.17;;;30.90;;
40745;SDS011;26454;51.164;4.488;2023-05-10T05:56:44;55.47;;;34.53;;
40745;SDS011;26454;51.164;4.488;2023-05-10T05:59:10;52.22;;;34.40;;
40745;SDS011;26454;51.164;4.488;2023-05-10T06:01:36;50.88;;;32.50;;
40745;SDS011;26454;51.164;4.488;2023-05-10T06:04:02;62.80;;;38.08;;
40745;SDS011;26454;51.164;4.488;2023-05-10T06:06:31;61.17;;;37.30;;
40745;SDS011;26454;51.164;4.488;2023-05-10T06:08:57;63.67;;;40.47;;
40745;SDS011;26454;51.164;4.488;2023-05-10T06:11:23;60.67;;;37.55;;
40745;SDS011;26454;51.164;4.488;2023-05-10T06:13:50;64.63;;;39.38;;
40745;SDS011;26454;51.164;4.488;2023-05-10T06:16:16;73.30;;;43.97;;
40745;SDS011;26454;51.164;4.488;2023-05-10T06:18:42;65.18;;;40.50;;
40745;SDS011;26454;51.164;4.488;2023-05-10T06:21:08;67.47;;;42.85;;
40745;SDS011;26454;51.164;4.488;2023-05-10T06:23:34;66.75;;;44.42;;
40745;SDS011;26454;51.164;4.488;2023-05-10T06:26:01;62.08;;;41.67;;
40745;SDS011;26454;51.164;4.488;2023-05-10T06:28:37;59.60;;;39.13;;
40745;SDS011;26454;51.164;4.488;2023-05-10T06:31:09;62.08;;;37.35;;
40745;SDS011;26454;51.164;4.488;2023-05-10T06:33:46;54.78;;;37.50;;
40745;SDS011;26454;51.164;4.488;2023-05-10T06:39:26;53.95;;;33.88;;
40745;SDS011;26454;51.164;4.488;2023-05-10T06:41:52;53.28;;;35.88;;
40745;SDS011;26454;51.164;4.488;2023-05-10T06:44:22;53.40;;;35.42;;
40745;SDS011;26454;51.164;4.488;2023-05-10T06:46:47;54.70;;;34.75;;
40745;SDS011;26454;51.164;4.488;2023-05-10T06:49:14;55.33;;;35.45;;
40745;SDS011;26454;51.164;4.488;2023-05-10T06:51:41;52.80;;;34.33;;
40745;SDS011;26454;51.164;4.488;2023-05-10T06:54:07;54.55;;;35.28;;
40745;SDS011;26454;51.164;4.488;2023-05-10T06:56:33;51.60;;;34.17;;
40745;SDS011;26454;51.164;4.488;2023-05-10T06:58:59;49.47;;;32.83;;
40745;SDS011;26454;51.164;4.488;2023-05-10T07:01:25;45.00;;;32.45;;
40745;SDS011;26454;51.164;4.488;2023-05-10T07:03:52;46.10;;;30.85;;
40745;SDS011;26454;51.164;4.488;2023-05-10T07:06:20;47.33;;;31.63;;
40745;SDS011;26454;51.164;4.488;2023-05-10T07:08:47;49.47;;;32.83;;
40745;SDS011;26454;51.164;4.488;2023-05-10T07:11:13;50.83;;;33.97;;
40745;SDS011;26454;51.164;4.488;2023-05-10T07:13:39;49.38;;;31.67;;
40745;SDS011;26454;51.164;4.488;2023-05-10T07:16:08;49.30;;;33.20;;
40745;SDS011;26454;51.164;4.488;2023-05-10T07:18:35;44.20;;;32.00;;
40745;SDS011;26454;51.164;4.488;2023-05-10T07:21:02;49.70;;;32.92;;
40745;SDS011;26454;51.164;4.488;2023-05-10T07:23:37;49.42;;;34.08;;
40745;SDS011;26454;51.164;4.488;2023-05-10T07:26:03;46.50;;;32.47;;
40745;SDS011;26454;51.164;4.488;2023-05-10T07:28:52;45.42;;;34.85;;
40745;SDS011;26454;51.164;4.488;2023-05-10T07:31:31;46.60;;;32.85;;
40745;SDS011;26454;51.164;4.488;2023-05-10T07:34:05;45.75;;;32.53;;
40745;SDS011;26454;51.164;4.488;2023-05-10T07:36:39;44.00;;;30.45;;
40745;SDS011;26454;51.164;4.488;2023-05-10T07:39:14;41.05;;;28.70;;
40745;SDS011;26454;51.164;4.488;2023-05-10T07:44:14;31.50;;;24.55;;
40745;SDS011;26454;51.164;4.488;2023-05-10T07:46:46;31.02;;;23.67;;
40745;SDS011;26454;51.164;4.488;2023-05-10T07:49:20;32.63;;;24.85;;
40745;SDS011;26454;51.164;4.488;2023-05-10T07:51:49;32.42;;;24.40;;
40745;SDS011;26454;51.164;4.488;2023-05-10T07:54:15;36.58;;;26.90;;
40745;SDS011;26454;51.164;4.488;2023-05-10T07:56:41;35.67;;;26.63;;
40745;SDS011;26454;51.164;4.488;2023-05-10T07:59:15;30.67;;;24.63;;
40745;SDS011;26454;51.164;4.488;2023-05-10T08:01:42;33.45;;;27.23;;
40745;SDS011;26454;51.164;4.488;2023-05-10T08:04:08;35.67;;;26.65;;
40745;SDS011;26454;51.164;4.488;2023-05-10T08:06:35;32.67;;;24.73;;
40745;SDS011;26454;51.164;4.488;2023-05-10T08:09:10;33.42;;;24.70;;
40745;SDS011;26454;51.164;4.488;2023-05-10T08:11:37;36.75;;;27.20;;
40745;SDS011;26454;51.164;4.488;2023-05-10T08:14:03;38.55;;;28.90;;
40745;SDS011;26454;51.164;4.488;2023-05-10T08:16:38;38.78;;;27.65;;
40745;SDS011;26454;51.164;4.488;2023-05-10T08:19:04;38.35;;;27.08;;
40745;SDS011;26454;51.164;4.488;2023-05-10T08:21:31;38.42;;;28.38;;
40745;SDS011;26454;51.164;4.488;2023-05-10T08:23:58;36.30;;;25.08;;
40745;SDS011;26454;51.164;4.488;2023-05-10T08:26:26;34.22;;;24.67;;
40745;SDS011;26454;51.164;4.488;2023-05-10T08:28:59;31.08;;;22.95;;
40745;SDS011;26454;51.164;4.488;2023-05-10T08:31:37;32.50;;;24.35;;
40745;SDS011;26454;51.164;4.488;2023-05-10T08:36:58;34.30;;;25.00;;
40745;SDS011;26454;51.164;4.488;2023-05-10T08:39:27;28.33;;;22.35;;
40745;SDS011;26454;51.164;4.488;2023-05-10T08:41:53;31.08;;;22.75;;
40745;SDS011;26454;51.164;4.488;2023-05-10T08:44:24;33.13;;;23.63;;
40745;SDS011;26454;51.164;4.488;2023-05-10T08:46:51;37.97;;;24.58;;
40745;SDS011;26454;51.164;4.488;2023-05-10T08:49:37;35.38;;;25.70;;
40745;SDS011;26454;51.164;4.488;2023-05-10T08:52:15;29.65;;;24.05;;
40745;SDS011;26454;51.164;4.488;2023-05-10T08:54:47;33.20;;;25.92;;
40745;SDS011;26454;51.164;4.488;2023-05-10T08:57:14;37.47;;;25.50;;
40745;SDS011;26454;51.164;4.488;2023-05-10T08:59:40;32.90;;;23.92;;
40745;SDS011;26454;51.164;4.488;2023-05-10T09:02:09;30.25;;;23.25;;
40745;SDS011;26454;51.164;4.488;2023-05-10T09:04:36;26.67;;;21.10;;
40745;SDS011;26454;51.164;4.488;2023-05-10T09:07:06;25.70;;;20.60;;
40745;SDS011;26454;51.164;4.488;2023-05-10T09:09:32;29.63;;;22.27;;
40745;SDS011;26454;51.164;4.488;2023-05-10T09:12:01;31.23;;;23.33;;
40745;SDS011;26454;51.164;4.488;2023-05-10T09:14:28;24.13;;;19.67;;
40745;SDS011;26454;51.164;4.488;2023-05-10T09:16:59;25.35;;;19.70;;
40745;SDS011;26454;51.164;4.488;2023-05-10T09:19:28;26.00;;;19.23;;
40745;SDS011;26454;51.164;4.488;2023-05-10T09:21:54;29.10;;;19.10;;
40745;SDS011;26454;51.164;4.488;2023-05-10T09:24:24;30.42;;;19.52;;
40745;SDS011;26454;51.164;4.488;2023-05-10T09:26:52;23.48;;;18.40;;
40745;SDS011;26454;51.164;4.488;2023-05-10T09:29:18;29.50;;;20.55;;
40745;SDS011;26454;51.164;4.488;2023-05-10T09:31:47;28.00;;;19.45;;
40745;SDS011;26454;51.164;4.488;2023-05-10T09:34:18;23.55;;;17.48;;
40745;SDS011;26454;51.164;4.488;2023-05-10T09:39:30;29.25;;;18.90;;
40745;SDS011;26454;51.164;4.488;2023-05-10T09:42:03;28.23;;;19.13;;
40745;SDS011;26454;51.164;4.488;2023-05-10T09:44:36;29.25;;;20.60;;
40745;SDS011;26454;51.164;4.488;2023-05-10T09:47:03;32.25;;;20.80;;
40745;SDS011;26454;51.164;4.488;2023-05-10T09:49:30;29.02;;;19.50;;
40745;SDS011;26454;51.164;4.488;2023-05-10T09:52:00;35.03;;;21.80;;
40745;SDS011;26454;51.164;4.488;2023-05-10T09:54:26;31.33;;;19.25;;
40745;SDS011;26454;51.164;4.488;2023-05-10T09:56:57;32.08;;;18.63;;
40745;SDS011;26454;51.164;4.488;2023-05-10T09:59:25;29.83;;;19.02;;
40745;SDS011;26454;51.164;4.488;2023-05-10T10:01:52;31.55;;;17.67;;
40745;SDS011;26454;51.164;4.488;2023-05-10T10:04:19;26.65;;;17.92;;
40745;SDS011;26454;51.164;4.488;2023-05-10T10:06:46;30.42;;;18.95;;
40745;SDS011;26454;51.164;4.488;2023-05-10T10:09:12;28.15;;;17.73;;
40745;SDS011;26454;51.164;4.488;2023-05-10T10:11:39;60.55;;;20.20;;
40745;SDS011;26454;51.164;4.488;2023-05-10T10:14:06;36.08;;;19.77;;
40745;SDS011;26454;51.164;4.488;2023-05-10T10:19:18;81.18;;;20.45;;
40745;SDS011;26454;51.164;4.488;2023-05-10T10:21:45;32.28;;;18.13;;
40745;SDS011;26454;51.164;4.488;2023-05-10T10:24:13;30.58;;;17.20;;
40745;SDS011;26454;51.164;4.488;2023-05-10T10:26:39;20.88;;;15.52;;
40745;SDS011;26454;51.164;4.488;2023-05-10T10:29:10;24.50;;;15.45;;
40745;SDS011;26454;51.164;4.488;2023-05-10T10:31:40;20.25;;;15.52;;
40745;SDS011;26454;51.164;4.488;2023-05-10T10:34:10;24.83;;;15.93;;
40745;SDS011;26454;51.164;4.488;2023-05-10T10:36:40;20.83;;;14.85;;
40745;SDS011;26454;51.164;4.488;2023-05-10T10:39:09;26.05;;;15.50;;
40745;SDS011;26454;51.164;4.488;2023-05-10T10:41:36;24.17;;;15.85;;
40745;SDS011;26454;51.164;4.488;2023-05-10T10:46:58;25.63;;;15.75;;
40745;SDS011;26454;51.164;4.488;2023-05-10T10:49:25;27.73;;;16.65;;
40745;SDS011;26454;51.164;4.488;2023-05-10T10:54:28;25.42;;;16.95;;
40745;SDS011;26454;51.164;4.488;2023-05-10T10:59:30;24.17;;;15.73;;
40745;SDS011;26454;51.164;4.488;2023-05-10T11:01:56;21.95;;;14.63;;
40745;SDS011;26454;51.164;4.488;2023-05-10T11:04:25;21.88;;;15.73;;
40745;SDS011;26454;51.164;4.488;2023-05-10T11:06:51;18.95;;;14.73;;
40745;SDS011;26454;51.164;4.488;2023-05-10T11:09:40;21.92;;;14.70;;
40745;SDS011;26454;51.164;4.488;2023-05-10T11:12:08;19.85;;;14.45;;
40745;SDS011;26454;51.164;4.488;2023-05-10T11:14:34;20.58;;;13.70;;
40745;SDS011;26454;51.164;4.488;2023-05-10T11:17:01;20.38;;;14.25;;
40745;SDS011;26454;51.164;4.488;2023-05-10T11:19:27;20.63;;;14.13;;
40745;SDS011;26454;51.164;4.488;2023-05-10T11:24:30;18.85;;;13.18;;
40745;SDS011;26454;51.164;4.488;2023-05-10T11:26:56;19.02;;;14.00;;
40745;SDS011;26454;51.164;4.488;2023-05-10T11:29:22;19.63;;;14.07;;
40745;SDS011;26454;51.164;4.488;2023-05-10T11:31:51;18.92;;;13.75;;
40745;SDS011;26454;51.164;4.488;2023-05-10T11:34:24;34.13;;;14.98;;
40745;SDS011;26454;51.164;4.488;2023-05-10T11:36:51;18.15;;;13.00;;
40745;SDS011;26454;51.164;4.488;2023-05-10T11:39:18;15.93;;;13.60;;
40745;SDS011;26454;51.164;4.488;2023-05-10T11:41:47;23.80;;;15.23;;
40745;SDS011;26454;51.164;4.488;2023-05-10T11:44:14;22.27;;;14.25;;
40745;SDS011;26454;51.164;4.488;2023-05-10T11:46:40;17.17;;;14.27;;
40745;SDS011;26454;51.164;4.488;2023-05-10T11:49:06;19.77;;;14.55;;
40745;SDS011;26454;51.164;4.488;2023-05-10T11:51:34;17.52;;;13.95;;
40745;SDS011;26454;51.164;4.488;2023-05-10T11:54:05;19.63;;;12.95;;
40745;SDS011;26454;51.164;4.488;2023-05-10T11:56:33;17.85;;;13.18;;
40745;SDS011;26454;51.164;4.488;2023-05-10T11:58:59;18.50;;;13.38;;
40745;SDS011;26454;51.164;4.488;2023-05-10T12:01:27;20.27;;;12.10;;
40745;SDS011;26454;51.164;4.488;2023-05-10T12:03:54;17.40;;;12.68;;
40745;SDS011;26454;51.164;4.488;2023-05-10T12:06:29;19.13;;;12.20;;
40745;SDS011;26454;51.164;4.488;2023-05-10T12:09:05;17.52;;;13.27;;
40745;SDS011;26454;51.164;4.488;2023-05-10T12:11:35;19.50;;;13.07;;
40745;SDS011;26454;51.164;4.488;2023-05-10T12:14:03;18.02;;;13.60;;
40745;SDS011;26454;51.164;4.488;2023-05-10T12:16:29;19.23;;;14.40;;
40745;SDS011;26454;51.164;4.488;2023-05-10T12:18:56;20.10;;;12.77;;
40745;SDS011;26454;51.164;4.488;2023-05-10T12:21:23;17.75;;;12.75;;
40745;SDS011;26454;51.164;4.488;2023-05-10T12:23:50;19.17;;;15.18;;
40745;SDS011;26454;51.164;4.488;2023-05-10T12:26:16;16.58;;;12.85;;
40745;SDS011;26454;51.164;4.488;2023-05-10T12:28:43;26.60;;;15.57;;
40745;SDS011;26454;51.164;4.488;2023-05-10T12:31:09;18.92;;;13.77;;
40745;SDS011;26454;51.164;4.488;2023-05-10T12:33:37;16.73;;;13.27;;
40745;SDS011;26454;51.164;4.488;2023-05-10T12:36:07;21.15;;;13.73;;
40745;SDS011;26454;51.164;4.488;2023-05-10T12:38:40;21.35;;;12.93;;
40745;SDS011;26454;51.164;4.488;2023-05-10T12:41:08;19.60;;;13.52;;
40745;SDS011;26454;51.164;4.488;2023-05-10T12:43:35;20.17;;;13.50;;
40745;SDS011;26454;51.164;4.488;2023-05-10T12:46:08;19.13;;;12.82;;
40745;SDS011;26454;51.164;4.488;2023-05-10T12:48:36;21.00;;;13.95;;
40745;SDS011;26454;51.164;4.488;2023-05-10T12:51:03;19.20;;;13.80;;
40745;SDS011;26454;51.164;4.488;2023-05-10T12:53:30;19.33;;;13.18;;
40745;SDS011;26454;51.164;4.488;2023-05-10T12:55:58;22.38;;;14.32;;
40745;SDS011;26454;51.164;4.488;2023-05-10T12:58:25;18.75;;;13.05;;
40745;SDS011;26454;51.164;4.488;2023-05-10T13:00:55;16.85;;;13.43;;
40745;SDS011;26454;51.164;4.488;2023-05-10T13:03:22;18.52;;;13.95;;
40745;SDS011;26454;51.164;4.488;2023-05-10T13:05:54;18.80;;;12.98;;
40745;SDS011;26454;51.164;4.488;2023-05-10T13:08:23;18.08;;;12.77;;
40745;SDS011;26454;51.164;4.488;2023-05-10T13:10:58;18.17;;;13.07;;
40745;SDS011;26454;51.164;4.488;2023-05-10T13:13:30;19.75;;;13.57;;
40745;SDS011;26454;51.164;4.488;2023-05-10T13:15:56;17.27;;;13.38;;
40745;SDS011;26454;51.164;4.488;2023-05-10T13:18:25;20.65;;;13.05;;
40745;SDS011;26454;51.164;4.488;2023-05-10T13:21:00;17.88;;;12.40;;
40745;SDS011;26454;51.164;4.488;2023-05-10T13:23:31;15.52;;;12.88;;
40745;SDS011;26454;51.164;4.488;2023-05-10T13:26:03;17.45;;;13.38;;
40745;SDS011;26454;51.164;4.488;2023-05-10T13:28:29;21.45;;;13.52;;
40745;SDS011;26454;51.164;4.488;2023-05-10T13:30:58;19.13;;;13.30;;
40745;SDS011;26454;51.164;4.488;2023-05-10T13:35:58;15.40;;;13.48;;
40745;SDS011;26454;51.164;4.488;2023-05-10T13:38:24;17.33;;;12.52;;
40745;SDS011;26454;51.164;4.488;2023-05-10T13:40:50;17.70;;;13.93;;
40745;SDS011;26454;51.164;4.488;2023-05-10T13:43:18;19.70;;;14.13;;
40745;SDS011;26454;51.164;4.488;2023-05-10T13:45:44;17.80;;;13.10;;
40745;SDS011;26454;51.164;4.488;2023-05-10T13:48:10;16.63;;;13.13;;
40745;SDS011;26454;51.164;4.488;2023-05-10T13:50:39;15.18;;;12.70;;
40745;SDS011;26454;51.164;4.488;2023-05-10T13:53:05;23.40;;;14.40;;
40745;SDS011;26454;51.164;4.488;2023-05-10T13:55:32;18.58;;;13.93;;
40745;SDS011;26454;51.164;4.488;2023-05-10T13:57:58;17.90;;;13.25;;
40745;SDS011;26454;51.164;4.488;2023-05-10T14:00:25;17.73;;;12.65;;
40745;SDS011;26454;51.164;4.488;2023-05-10T14:02:51;20.48;;;13.95;;
40745;SDS011;26454;51.164;4.488;2023-05-10T14:05:18;17.58;;;13.07;;
40745;SDS011;26454;51.164;4.488;2023-05-10T14:07:44;18.08;;;14.10;;
40745;SDS011;26454;51.164;4.488;2023-05-10T14:10:10;19.73;;;13.95;;
40745;SDS011;26454;51.164;4.488;2023-05-10T14:12:36;19.27;;;13.68;;
40745;SDS011;26454;51.164;4.488;2023-05-10T14:15:03;16.45;;;12.15;;
40745;SDS011;26454;51.164;4.488;2023-05-10T14:17:31;17.10;;;12.55;;
40745;SDS011;26454;51.164;4.488;2023-05-10T14:19:57;21.40;;;14.05;;
40745;SDS011;26454;51.164;4.488;2023-05-10T14:22:24;18.52;;;13.90;;
40745;SDS011;26454;51.164;4.488;2023-05-10T14:24:50;18.83;;;14.48;;
40745;SDS011;26454;51.164;4.488;2023-05-10T14:27:16;25.02;;;16.80;;
40745;SDS011;26454;51.164;4.488;2023-05-10T14:29:45;20.52;;;16.55;;
40745;SDS011;26454;51.164;4.488;2023-05-10T14:32:11;28.13;;;16.83;;
40745;SDS011;26454;51.164;4.488;2023-05-10T14:34:40;24.25;;;16.25;;
40745;SDS011;26454;51.164;4.488;2023-05-10T14:37:11;25.23;;;17.77;;
40745;SDS011;26454;51.164;4.488;2023-05-10T14:39:37;18.90;;;15.23;;
40745;SDS011;26454;51.164;4.488;2023-05-10T14:42:03;21.40;;;17.13;;
40745;SDS011;26454;51.164;4.488;2023-05-10T14:44:30;20.38;;;15.35;;
40745;SDS011;26454;51.164;4.488;2023-05-10T14:46:56;21.45;;;16.58;;
40745;SDS011;26454;51.164;4.488;2023-05-10T14:49:22;21.58;;;14.75;;
40745;SDS011;26454;51.164;4.488;2023-05-10T14:51:51;21.98;;;16.23;;
40745;SDS011;26454;51.164;4.488;2023-05-10T14:54:17;22.48;;;17.10;;
40745;SDS011;26454;51.164;4.488;2023-05-10T14:56:43;23.55;;;16.30;;
40745;SDS011;26454;51.164;4.488;2023-05-10T14:59:10;23.13;;;16.27;;
40745;SDS011;26454;51.164;4.488;2023-05-10T15:01:36;20.25;;;15.40;;
40745;SDS011;26454;51.164;4.488;2023-05-10T15:04:03;24.88;;;17.83;;